Time;durP1;ratioP1;P1;durP2;ratioP2;P2;SDS_P1;SDS_P2;PMS_P1;PMS_P2;Temp;Humidity;BMP_temperature;BMP_pressure;BME280_temperature;BME280_humidity;BME280_pressure;Samples;Min_cycle;Max_cycle;Signal;HPM_P1;HPM_P2
2021/03/23 00:01:05;;;;;;;2.53;1.95;;;7.80;99.90;;;;;;5011216;28;20514;-81
2021/03/23 00:03:58;;;;;;;3.40;2.00;;;7.80;99.90;;;;;;5011192;28;20556;-78
2021/03/23 00:06:27;;;;;;;3.22;2.22;;;7.80;99.90;;;;;;5012609;28;20049;-78
2021/03/23 00:08:56;;;;;;;3.28;2.33;;;7.80;99.90;;;;;;5010966;28;20479;-81
2021/03/23 00:11:34;;;;;;;3.65;1.90;;;7.80;99.90;;;;;;5010967;28;20061;-78
2021/03/23 00:14:03;;;;;;;2.83;1.92;;;7.80;99.90;;;;;;5010984;28;20037;-81
2021/03/23 00:16:32;;;;;;;4.28;2.17;;;7.80;99.90;;;;;;5010931;28;20384;-82
2021/03/23 00:18:59;;;;;;;2.90;2.38;;;7.80;99.90;;;;;;5010994;28;20026;-77
2021/03/23 00:21:26;;;;;;;6.30;1.90;;;7.80;99.90;;;;;;5010993;28;20034;-78
2021/03/23 00:23:53;;;;;;;3.90;2.08;;;7.80;99.90;;;;;;5010906;28;20030;-80
2021/03/23 00:26:20;;;;;;;13.02;2.45;;;7.80;99.90;;;;;;5010866;28;20486;-78
2021/03/23 00:28:48;;;;;;;6.88;2.17;;;7.80;99.90;;;;;;5011099;28;20034;-80
2021/03/23 00:31:16;;;;;;;4.05;2.00;;;7.80;99.90;;;;;;5010487;28;20032;-77
2021/03/23 00:33:42;;;;;;;3.03;2.03;;;7.70;99.90;;;;;;5010772;28;20026;-79
2021/03/23 00:36:09;;;;;;;3.45;1.80;;;7.70;99.90;;;;;;5010603;28;20037;-79
2021/03/23 00:38:37;;;;;;;3.13;2.03;;;7.70;99.90;;;;;;5010664;28;20026;-79
2021/03/23 00:41:06;;;;;;;4.13;1.90;;;7.80;99.90;;;;;;5010589;28;20033;-79
2021/03/23 00:43:32;;;;;;;5.55;2.05;;;7.80;99.90;;;;;;5010549;28;20060;-81
2021/03/23 00:45:58;;;;;;;3.55;2.20;;;7.80;99.90;;;;;;5010545;28;20034;-81
2021/03/23 00:48:24;;;;;;;4.30;2.05;;;7.70;99.90;;;;;;5010509;28;20484;-82
2021/03/23 00:50:50;;;;;;;4.88;2.13;;;7.70;99.90;;;;;;5010675;28;20480;-79
2021/03/23 00:53:17;;;;;;;4.05;1.70;;;7.80;99.90;;;;;;5010527;28;20029;-79
2021/03/23 00:55:43;;;;;;;3.30;1.52;;;7.80;99.90;;;;;;5010331;28;20049;-79
2021/03/23 00:58:09;;;;;;;3.65;1.70;;;7.80;99.90;;;;;;5010366;28;20022;-77
2021/03/23 01:00:35;;;;;;;5.03;1.75;;;7.80;99.90;;;;;;5010190;28;20522;-79
2021/03/23 01:03:01;;;;;;;4.20;1.80;;;7.80;99.90;;;;;;5010538;28;20022;-81
2021/03/23 01:05:30;;;;;;;3.33;1.70;;;7.90;99.90;;;;;;5010611;28;20022;-77
2021/03/23 01:07:56;;;;;;;2.50;1.30;;;7.90;99.90;;;;;;5060868;28;20083;-77
2021/03/23 01:10:25;;;;;;;2.97;1.70;;;7.90;99.90;;;;;;5077518;28;20034;-78
2021/03/23 01:12:51;;;;;;;2.83;1.55;;;7.90;99.90;;;;;;5010178;28;20415;-83
2021/03/23 01:15:20;;;;;;;5.97;1.70;;;7.90;99.90;;;;;;5009980;28;20034;-80
2021/03/23 01:17:46;;;;;;;3.28;1.83;;;8.00;99.90;;;;;;5077784;28;20022;-77
2021/03/23 01:20:15;;;;;;;5.18;1.63;;;8.10;99.90;;;;;;5010066;28;20036;-77
2021/03/23 01:22:41;;;;;;;2.55;1.50;;;8.10;99.90;;;;;;5010204;28;20109;-77
2021/03/23 01:25:08;;;;;;;3.63;1.33;;;8.10;99.90;;;;;;5077921;28;20109;-80
2021/03/23 01:27:34;;;;;;;2.28;1.50;;;8.10;99.90;;;;;;5009919;28;20041;-78
2021/03/23 01:30:00;;;;;;;1.50;1.23;;;8.10;99.90;;;;;;5009917;28;20030;-79
2021/03/23 01:32:26;;;;;;;2.05;1.50;;;8.10;99.90;;;;;;5077510;28;20072;-79
2021/03/23 01:34:52;;;;;;;2.92;1.48;;;8.10;99.90;;;;;;5009648;28;20045;-79
2021/03/23 01:37:19;;;;;;;4.03;1.65;;;8.00;99.90;;;;;;5009669;28;20026;-79
2021/03/23 01:39:45;;;;;;;2.35;1.88;;;8.00;99.90;;;;;;5009954;28;20452;-80
2021/03/23 01:42:13;;;;;;;2.83;1.38;;;7.90;99.90;;;;;;5009823;28;20041;-78
2021/03/23 01:44:41;;;;;;;2.47;1.50;;;7.90;99.90;;;;;;5080038;28;20034;-79
2021/03/23 01:47:07;;;;;;;2.35;1.50;;;7.90;99.90;;;;;;5013192;28;20022;-78
2021/03/23 01:49:41;;;;;;;3.53;2.03;;;7.90;99.90;;;;;;5013059;28;20526;-82
2021/03/23 01:52:12;;;;;;;2.42;1.50;;;7.90;99.90;;;;;;5013141;28;20026;-80
2021/03/23 01:54:59;;;;;;;4.20;1.65;;;7.90;99.90;;;;;;5013026;28;20372;-80
2021/03/23 01:57:25;;;;;;;3.35;1.65;;;7.90;99.90;;;;;;5013267;28;20067;-80
2021/03/23 01:59:54;;;;;;;4.53;1.85;;;7.90;99.90;;;;;;5013111;28;20034;-81
2021/03/23 02:02:26;;;;;;;2.42;1.60;;;7.90;99.90;;;;;;5012938;28;20109;-79
2021/03/23 02:04:52;;;;;;;2.50;1.60;;;7.90;99.90;;;;;;5081073;28;20041;-79
2021/03/23 02:07:18;;;;;;;2.53;1.77;;;7.80;99.90;;;;;;5012844;28;20022;-79
2021/03/23 02:09:45;;;;;;;2.63;1.52;;;7.80;99.90;;;;;;5013043;28;20105;-79
2021/03/23 02:12:13;;;;;;;3.42;1.10;;;7.90;99.90;;;;;;5012532;28;20504;-78
2021/03/23 02:14:43;;;;;;;3.33;1.20;;;7.90;99.90;;;;;;5080925;28;20044;-77
2021/03/23 02:17:16;;;;;;;3.22;1.17;;;7.80;99.90;;;;;;5012710;28;20117;-77
2021/03/23 02:19:45;;;;;;;1.90;1.30;;;7.90;99.90;;;;;;5081588;28;20026;-80
2021/03/23 02:22:33;;;;;;;3.28;1.70;;;7.90;99.90;;;;;;5013353;28;20036;-80
2021/03/23 02:25:01;;;;;;;3.13;1.45;;;7.90;99.90;;;;;;5080804;28;20034;-78
2021/03/23 02:27:29;;;;;;;3.08;1.30;;;7.90;99.90;;;;;;5012577;28;20061;-78
2021/03/23 02:29:59;;;;;;;1.23;1.10;;;7.80;99.90;;;;;;5012534;28;20134;-83
2021/03/23 02:32:25;;;;;;;3.97;1.40;;;7.80;99.90;;;;;;5012671;28;20029;-81
2021/03/23 02:34:51;;;;;;;4.22;1.60;;;7.80;99.90;;;;;;5012389;28;20030;-80
2021/03/23 02:37:18;;;;;;;5.30;1.40;;;7.80;99.80;;;;;;5012333;28;20109;-78
2021/03/23 02:39:44;;;;;;;1.65;1.15;;;7.80;99.60;;;;;;5012788;28;20083;-77
2021/03/23 02:42:11;;;;;;;2.50;1.10;;;7.90;99.90;;;;;;5012396;28;20057;-77
2021/03/23 02:44:43;;;;;;;3.47;1.98;;;7.90;99.90;;;;;;5012478;28;20030;-78
2021/03/23 02:47:10;;;;;;;3.72;1.55;;;7.90;99.90;;;;;;5012396;28;20487;-77
2021/03/23 02:49:36;;;;;;;2.85;1.58;;;7.90;99.90;;;;;;5012300;28;20029;-81
2021/03/23 02:52:03;;;;;;;4.90;2.03;;;7.90;99.90;;;;;;5012370;28;20018;-78
2021/03/23 02:54:29;;;;;;;4.35;1.80;;;7.80;99.90;;;;;;5011965;28;20308;-78
2021/03/23 02:57:17;;;;;;;2.90;1.52;;;7.80;99.90;;;;;;5012210;28;20049;-79
2021/03/23 02:59:43;;;;;;;3.85;1.10;;;7.80;99.90;;;;;;5012160;28;20096;-81
2021/03/23 03:02:09;;;;;;;2.20;1.23;;;7.80;99.90;;;;;;5012068;28;20060;-79
2021/03/23 03:04:38;;;;;;;2.78;1.40;;;7.80;99.50;;;;;;5011889;28;20026;-79
2021/03/23 03:09:57;;;;;;;8.73;1.35;;;7.80;99.70;;;;;;5035173;28;20384;-82
2021/03/23 03:12:22;;;;;;;1.83;1.20;;;7.70;99.90;;;;;;5011957;28;20053;-80
2021/03/23 03:14:48;;;;;;;4.18;1.40;;;7.70;99.90;;;;;;5011614;28;20038;-81
2021/03/23 03:17:14;;;;;;;3.30;1.17;;;7.70;99.90;;;;;;5011773;28;20116;-81
2021/03/23 03:19:40;;;;;;;11.10;1.60;;;7.70;99.90;;;;;;5012061;28;20034;-79
2021/03/23 03:22:06;;;;;;;3.85;1.55;;;7.70;99.90;;;;;;5011773;28;20503;-81
2021/03/23 03:24:32;;;;;;;2.03;1.50;;;7.70;99.90;;;;;;5011808;28;20025;-79
2021/03/23 03:26:58;;;;;;;3.28;1.50;;;7.70;99.90;;;;;;5011833;28;20036;-81
2021/03/23 03:29:24;;;;;;;2.13;1.20;;;7.70;99.90;;;;;;5011581;28;20034;-82
2021/03/23 03:31:50;;;;;;;6.65;1.48;;;7.70;99.90;;;;;;5079497;28;20026;-77
2021/03/23 03:34:16;;;;;;;3.38;1.10;;;7.70;99.90;;;;;;5011350;28;20034;-82
2021/03/23 03:36:42;;;;;;;3.75;1.13;;;7.60;99.90;;;;;;5081452;28;20480;-78
2021/03/23 03:39:08;;;;;;;6.63;1.70;;;7.70;99.90;;;;;;5012137;28;20026;-79
2021/03/23 03:41:35;;;;;;;3.67;1.30;;;7.70;99.90;;;;;;5011446;28;20026;-78
2021/03/23 03:44:02;;;;;;;2.50;1.98;;;7.60;99.90;;;;;;5011467;28;20024;-79
2021/03/23 03:46:28;;;;;;;6.78;1.42;;;7.60;99.90;;;;;;5011353;28;20535;-80
2021/03/23 03:48:54;;;;;;;2.92;1.45;;;7.60;99.90;;;;;;5011366;28;20118;-78
2021/03/23 03:51:20;;;;;;;6.57;2.70;;;7.60;99.90;;;;;;5011230;28;20018;-78
2021/03/23 03:53:46;;;;;;;1.73;1.30;;;7.50;99.90;;;;;;5011270;28;20058;-78
2021/03/23 03:56:12;;;;;;;4.13;1.83;;;7.60;99.90;;;;;;5011308;28;20428;-78
2021/03/23 03:58:38;;;;;;;2.58;1.20;;;7.60;99.90;;;;;;5079092;28;20488;-77
2021/03/23 04:01:04;;;;;;;3.13;1.30;;;7.60;99.90;;;;;;5011150;28;20036;-80
2021/03/23 04:03:31;;;;;;;4.45;1.77;;;7.70;99.90;;;;;;5011076;28;20026;-78
2021/03/23 04:05:59;;;;;;;4.93;1.45;;;7.70;99.90;;;;;;5010653;28;20030;-77
2021/03/23 04:08:29;;;;;;;6.82;1.75;;;7.60;99.90;;;;;;5010737;28;20018;-79
2021/03/23 04:10:59;;;;;;;2.95;1.50;;;7.60;99.90;;;;;;5010921;28;20034;-79
2021/03/23 04:13:25;;;;;;;4.18;1.23;;;7.60;99.90;;;;;;5010678;28;20082;-78
2021/03/23 04:15:52;;;;;;;2.15;1.80;;;7.60;99.90;;;;;;5011022;28;20037;-82
2021/03/23 04:18:21;;;;;;;5.05;1.30;;;7.60;99.90;;;;;;5010849;28;20045;-77
2021/03/23 04:20:49;;;;;;;2.35;1.27;;;7.60;99.90;;;;;;5011001;28;20546;-79
2021/03/23 04:23:23;;;;;;;6.28;1.58;;;7.60;99.90;;;;;;5010891;28;20033;-80
2021/03/23 04:25:49;;;;;;;4.95;1.35;;;7.60;99.90;;;;;;5010912;28;20030;-77
2021/03/23 04:28:16;;;;;;;2.88;1.50;;;7.60;99.90;;;;;;5010814;28;20029;-81
2021/03/23 04:30:42;;;;;;;3.40;1.90;;;7.60;99.90;;;;;;5010797;28;20026;-78
2021/03/23 04:33:07;;;;;;;4.70;1.33;;;7.60;99.90;;;;;;5010866;28;20384;-78
2021/03/23 04:35:49;;;;;;;6.18;1.70;;;7.50;99.90;;;;;;5010737;28;20445;-77
2021/03/23 04:38:20;;;;;;;5.65;1.90;;;7.60;99.90;;;;;;5010725;28;20109;-80
2021/03/23 04:40:46;;;;;;;4.60;1.58;;;7.50;99.90;;;;;;5010616;28;20022;-79
2021/03/23 04:43:37;;;;;;;3.60;1.75;;;7.60;99.90;;;;;;5010602;28;20078;-81
2021/03/23 04:46:03;;;;;;;3.70;1.80;;;7.60;99.90;;;;;;5010772;28;20030;-78
2021/03/23 04:48:47;;;;;;;3.15;1.30;;;7.60;99.90;;;;;;5010629;28;20736;-77
2021/03/23 04:51:13;;;;;;;;;;;7.60;99.90;;;;;;5011279;28;20104;-81
2021/03/23 04:53:41;;;;;;;2.88;1.40;;;7.60;99.90;;;;;;5013417;28;19909;-78
2021/03/23 04:56:17;;;;;;;2.97;1.48;;;7.60;99.90;;;;;;5010642;28;20026;-79
2021/03/23 04:58:43;;;;;;;3.40;1.40;;;7.60;99.90;;;;;;5010577;28;20034;-77
2021/03/23 05:01:09;;;;;;;3.20;1.48;;;7.50;99.90;;;;;;5078086;28;20498;-77
2021/03/23 05:03:35;;;;;;;3.65;1.38;;;7.50;99.90;;;;;;5010318;28;20029;-78
2021/03/23 05:06:12;;;;;;;3.70;1.40;;;7.50;99.90;;;;;;5010561;28;20042;-82
2021/03/23 05:08:42;;;;;;;4.82;2.08;;;7.50;99.90;;;;;;5010225;28;20026;-78
2021/03/23 05:11:11;;;;;;;4.55;1.88;;;7.50;99.90;;;;;;5010223;28;20038;-77
2021/03/23 05:13:37;;;;;;;3.35;1.38;;;7.50;99.90;;;;;;5077462;28;20058;-77
2021/03/23 05:16:04;;;;;;;4.30;1.20;;;7.60;99.90;;;;;;5010193;28;20094;-78
2021/03/23 05:18:30;;;;;;;4.25;1.17;;;7.60;99.90;;;;;;5008959;28;20030;-77
2021/03/23 05:20:56;;;;;;;4.57;1.92;;;7.60;99.90;;;;;;5010018;28;20034;-77
2021/03/23 05:23:22;;;;;;;7.40;1.35;;;7.60;99.90;;;;;;5010123;28;20022;-78
2021/03/23 05:25:49;;;;;;;3.30;1.85;;;7.70;99.90;;;;;;5009907;28;20018;-80
2021/03/23 05:28:15;;;;;;;2.75;2.05;;;7.70;99.90;;;;;;5009903;28;20038;-80
2021/03/23 05:30:42;;;;;;;8.60;1.83;;;7.70;99.90;;;;;;5009870;28;20029;-80
2021/03/23 05:33:09;;;;;;;2.47;1.30;;;7.80;99.90;;;;;;5009897;28;20084;-77
2021/03/23 05:35:36;;;;;;;11.88;2.03;;;7.80;99.90;;;;;;5009772;28;20041;-77
2021/03/23 05:38:03;;;;;;;3.72;1.60;;;7.80;99.90;;;;;;5009901;28;20030;-77
2021/03/23 05:40:32;;;;;;;3.45;1.92;;;7.90;99.90;;;;;;5009842;28;20092;-81
2021/03/23 05:43:14;;;;;;;11.32;2.55;;;7.90;99.90;;;;;;5009963;28;20053;-77
2021/03/23 05:45:42;;;;;;;6.55;1.90;;;7.90;99.90;;;;;;5009820;28;20026;-77
2021/03/23 05:48:20;;;;;;;3.72;1.67;;;7.90;99.90;;;;;;5009866;28;20396;-80
2021/03/23 05:50:58;;;;;;;5.88;1.50;;;7.90;99.90;;;;;;5009866;28;20030;-81
2021/03/23 05:53:37;;;;;;;7.18;1.67;;;8.00;99.90;;;;;;5009465;28;20030;-78
2021/03/23 05:56:04;;;;;;;4.18;1.50;;;8.10;99.90;;;;;;5009899;28;20038;-79
2021/03/23 05:58:39;;;;;;;3.70;1.63;;;8.10;99.90;;;;;;5009648;28;20052;-82
2021/03/23 06:01:11;;;;;;;3.95;1.48;;;8.20;99.90;;;;;;5009818;28;20452;-80
2021/03/23 06:03:47;;;;;;;5.78;1.50;;;8.20;99.90;;;;;;5009649;28;20033;-79
2021/03/23 06:06:46;;;;;;;3.30;1.30;;;8.20;99.90;;;;;;5077324;28;20030;-76
2021/03/23 06:09:14;;;;;;;6.85;1.80;;;8.30;99.90;;;;;;5014446;28;20076;-77
2021/03/23 06:11:43;;;;;;;3.83;1.70;;;8.40;99.90;;;;;;5009534;28;20053;-80
2021/03/23 06:14:33;;;;;;;5.70;1.92;;;8.40;99.90;;;;;;5009230;28;20394;-80
2021/03/23 06:17:29;;;;;;;6.13;1.85;;;8.50;99.90;;;;;;5009208;28;20496;-80
2021/03/23 06:20:17;;;;;;;5.40;1.75;;;8.50;99.90;;;;;;5017665;28;20110;-77
2021/03/23 06:22:46;;;;;;;4.32;1.48;;;8.60;99.90;;;;;;5009492;28;20475;-77
2021/03/23 06:25:44;;;;;;;5.90;1.90;;;8.50;99.90;;;;;;5009341;28;20030;-82
2021/03/23 06:28:28;;;;;;;9.45;2.33;;;8.60;99.90;;;;;;5009148;28;20038;-77
2021/03/23 06:31:35;;;;;;;5.10;2.25;;;8.70;99.90;;;;;;5011823;28;20037;-77
2021/03/23 06:34:02;;;;;;;8.85;1.50;;;8.70;99.90;;;;;;5019578;28;20050;-80
2021/03/23 06:36:30;;;;;;;7.53;1.85;;;8.70;99.90;;;;;;5080643;28;20467;-78
2021/03/23 06:38:57;;;;;;;7.63;2.10;;;8.70;99.90;;;;;;5012721;28;20037;-78
2021/03/23 06:41:31;;;;;;;6.35;2.25;;;8.80;99.90;;;;;;5012651;28;20034;-77
2021/03/23 06:44:00;;;;;;;4.05;1.83;;;8.80;99.90;;;;;;5012515;28;20583;-79
2021/03/23 06:46:32;;;;;;;4.47;1.75;;;8.80;99.90;;;;;;5012448;28;20038;-81
2021/03/23 06:49:17;;;;;;;3.47;1.50;;;8.80;99.90;;;;;;5012694;28;20022;-81
2021/03/23 06:52:02;;;;;;;4.30;2.08;;;8.90;99.90;;;;;;5012337;28;20061;-77
2021/03/23 06:54:32;;;;;;;3.78;2.03;;;8.90;99.90;;;;;;5080199;28;20496;-78
2021/03/23 06:57:01;;;;;;;4.50;1.52;;;8.90;99.90;;;;;;5012364;28;20030;-77
2021/03/23 06:59:29;;;;;;;5.13;1.75;;;8.90;99.90;;;;;;5080159;28;20034;-81
2021/03/23 07:02:01;;;;;;;3.95;1.80;;;8.90;99.90;;;;;;5012165;28;20025;-79
2021/03/23 07:04:39;;;;;;;7.18;1.38;;;9.00;99.90;;;;;;5080300;28;20034;-78
2021/03/23 07:07:14;;;;;;;6.90;1.55;;;9.00;99.90;;;;;;5012287;28;20034;-77
2021/03/23 07:09:55;;;;;;;2.33;1.45;;;9.00;99.90;;;;;;5012143;28;20030;-76
2021/03/23 07:12:44;;;;;;;4.80;1.77;;;9.10;99.90;;;;;;5011636;28;20408;-78
2021/03/23 07:15:28;;;;;;;3.28;1.42;;;9.10;99.90;;;;;;5012141;28;20041;-80
2021/03/23 07:18:09;;;;;;;5.70;1.83;;;9.10;99.70;;;;;;5011991;28;20384;-80
2021/03/23 07:20:38;;;;;;;5.40;1.48;;;9.20;99.40;;;;;;5011804;28;20060;-79
2021/03/23 07:23:32;;;;;;;2.45;1.50;;;9.20;98.20;;;;;;5011767;28;20113;-76
2021/03/23 07:26:15;;;;;;;3.90;1.70;;;9.20;98.70;;;;;;5016244;28;20037;-77
2021/03/23 07:28:42;;;;;;;3.17;1.45;;;9.30;98.50;;;;;;5011813;28;20026;-79
2021/03/23 07:31:25;;;;;;;4.88;1.70;;;9.30;98.90;;;;;;5011936;28;20091;-77
2021/03/23 07:34:10;;;;;;;3.20;0.80;;;9.40;98.60;;;;;;5011481;28;20025;-77
2021/03/23 07:36:56;;;;;;;2.22;1.67;;;9.40;97.50;;;;;;5011573;28;20073;-76
2021/03/23 07:39:45;;;;;;;4.53;2.10;;;9.40;97.90;;;;;;5011584;28;20022;-77
2021/03/23 07:42:16;;;;;;;4.80;1.05;;;9.40;97.30;;;;;;5030725;28;20034;-78
2021/03/23 07:44:49;;;;;;;5.97;1.58;;;9.40;97.80;;;;;;5011527;28;20033;-77
2021/03/23 07:47:18;;;;;;;5.65;2.17;;;9.40;97.80;;;;;;5011335;28;20022;-78
2021/03/23 07:50:06;;;;;;;6.45;1.65;;;9.40;99.00;;;;;;5011417;28;20026;-79
2021/03/23 07:52:45;;;;;;;4.57;2.17;;;9.50;99.30;;;;;;5011165;28;20026;-77
2021/03/23 07:55:21;;;;;;;5.88;1.63;;;9.60;99.20;;;;;;5011129;28;20552;-76
2021/03/23 07:58:05;;;;;;;3.17;1.50;;;9.60;98.40;;;;;;5011273;28;20452;-76
2021/03/23 08:00:36;;;;;;;1.63;1.10;;;9.60;98.50;;;;;;5011256;28;20033;-76
2021/03/23 08:03:37;;;;;;;3.75;1.95;;;9.70;98.60;;;;;;5011276;28;20030;-77
2021/03/23 08:06:09;;;;;;;8.32;2.10;;;9.70;98.80;;;;;;5011372;28;20532;-77
2021/03/23 08:09:03;;;;;;;2.22;1.30;;;9.80;98.70;;;;;;5011343;28;20034;-78
2021/03/23 08:11:31;;;;;;;;;;;9.80;98.90;;;;;;5011270;28;20042;-77
2021/03/23 08:14:06;;;;;;;7.57;1.67;;;9.90;98.50;;;;;;5010809;28;19948;-78
2021/03/23 08:17:05;;;;;;;7.15;1.90;;;9.90;98.70;;;;;;5078761;28;20034;-77
2021/03/23 08:19:34;;;;;;;5.00;1.50;;;9.90;98.90;;;;;;5011069;28;20034;-77
2021/03/23 08:22:21;;;;;;;4.50;1.92;;;9.90;97.40;;;;;;5010870;28;20030;-76
2021/03/23 08:25:34;;;;;;;6.30;2.00;;;10.00;97.60;;;;;;5010805;28;20109;-77
2021/03/23 08:28:18;;;;;;;3.88;1.90;;;10.00;97.00;;;;;;5031358;28;20495;-77
2021/03/23 08:30:55;;;;;;;3.45;1.48;;;10.00;97.10;;;;;;5011478;28;20046;-77
2021/03/23 08:33:50;;;;;;;4.80;1.50;;;10.10;96.90;;;;;;5010560;28;20494;-80
2021/03/23 08:36:41;;;;;;;3.63;1.73;;;10.20;97.40;;;;;;5010796;28;20066;-81
2021/03/23 08:39:43;;;;;;;4.05;2.03;;;10.30;97.50;;;;;;5010768;28;20032;-79
2021/03/23 08:42:21;;;;;;;6.07;1.95;;;10.30;96.70;;;;;;5016142;28;20034;-78
2021/03/23 08:44:55;;;;;;;3.47;1.48;;;10.40;96.30;;;;;;5010750;28;20055;-79
2021/03/23 08:47:25;;;;;;;3.80;1.70;;;10.40;95.40;;;;;;5010671;28;20022;-77
2021/03/23 08:49:53;;;;;;;4.55;1.85;;;10.40;96.40;;;;;;5010609;28;20030;-77
2021/03/23 08:52:33;;;;;;;3.75;1.38;;;10.40;96.00;;;;;;5010345;28;20060;-78
2021/03/23 08:55:00;;;;;;;9.10;2.03;;;10.50;95.60;;;;;;5010250;28;20498;-79
2021/03/23 08:58:08;;;;;;;4.75;2.10;;;10.40;96.10;;;;;;5010442;28;20029;-77
2021/03/23 09:00:37;;;;;;;3.15;1.10;;;10.40;97.00;;;;;;5012747;28;20040;-76
2021/03/23 09:03:11;;;;;;;3.83;1.80;;;10.40;97.30;;;;;;5077953;28;20548;-79
2021/03/23 09:05:51;;;;;;;3.78;1.40;;;10.50;96.40;;;;;;5010362;28;20511;-78
2021/03/23 09:08:36;;;;;;;10.80;2.15;;;10.50;95.80;;;;;;5077640;28;20033;-80
2021/03/23 09:11:40;;;;;;;5.78;1.67;;;10.60;95.70;;;;;;5010219;28;20026;-76
2021/03/23 09:14:06;;;;;;;5.00;1.70;;;10.60;95.80;;;;;;5045071;28;20049;-82
2021/03/23 09:16:58;;;;;;;7.57;2.05;;;10.60;97.40;;;;;;5078151;28;20022;-80
2021/03/23 09:20:01;;;;;;;5.30;2.17;;;10.90;98.20;;;;;;5010193;28;20037;-76
2021/03/23 09:22:31;;;;;;;4.03;1.65;;;11.10;98.00;;;;;;5077671;28;20026;-79
2021/03/23 09:25:23;;;;;;;2.75;1.70;;;10.90;97.30;;;;;;5010042;28;20061;-80
2021/03/23 09:27:49;;;;;;;6.75;1.83;;;10.90;97.60;;;;;;5009993;28;20057;-78
2021/03/23 09:30:46;;;;;;;4.05;1.48;;;10.90;97.00;;;;;;5009913;28;20042;-78
2021/03/23 09:33:16;;;;;;;7.22;2.28;;;11.00;96.40;;;;;;5009817;28;20040;-80
2021/03/23 09:36:13;;;;;;;3.90;1.17;;;11.00;96.70;;;;;;5009856;28;20090;-79
2021/03/23 09:38:43;;;;;;;5.53;2.15;;;11.00;97.00;;;;;;5016687;28;20061;-79
2021/03/23 09:41:37;;;;;;;5.97;1.08;;;10.90;96.00;;;;;;5009795;28;20037;-78
2021/03/23 09:44:05;;;;;;;10.13;1.55;;;10.80;95.30;;;;;;5009732;28;20041;-81
2021/03/23 09:46:31;;;;;;;4.20;1.40;;;10.70;96.00;;;;;;5077421;28;20491;-80
2021/03/23 09:49:20;;;;;;;5.35;2.15;;;10.90;97.00;;;;;;5009863;28;20098;-81
2021/03/23 09:51:55;;;;;;;8.50;2.05;;;11.10;96.50;;;;;;5009701;28;20037;-81
2021/03/23 09:54:36;;;;;;;4.10;2.40;;;11.10;95.90;;;;;;5009714;28;20092;-76
2021/03/23 09:57:15;;;;;;;2.35;1.33;;;11.20;95.80;;;;;;5011648;28;20038;-76
2021/03/23 09:59:56;;;;;;;13.05;1.80;;;10.90;95.70;;;;;;5010995;28;20452;-79
2021/03/23 10:02:27;;;;;;;4.47;1.85;;;11.00;95.90;;;;;;5009738;28;20026;-81
2021/03/23 10:04:53;;;;;;;7.45;2.20;;;11.10;96.30;;;;;;5010686;28;20029;-80
2021/03/23 10:07:38;;;;;;;4.57;1.65;;;11.10;95.20;;;;;;5013078;28;20091;-80
2021/03/23 10:10:27;;;;;;;7.20;2.15;;;11.20;94.70;;;;;;5013062;28;20022;-81
2021/03/23 10:12:54;;;;;;;17.80;2.53;;;11.40;96.20;;;;;;5012709;28;20054;-81
2021/03/23 10:15:33;;;;;;;7.32;2.10;;;11.60;95.30;;;;;;5012677;28;20149;-77
2021/03/23 10:18:27;;;;;;;6.53;1.30;;;11.50;94.50;;;;;;5013059;28;20022;-82
2021/03/23 10:21:09;;;;;;;3.08;1.35;;;11.30;95.50;;;;;;5013417;28;20074;-79
2021/03/23 10:23:50;;;;;;;6.15;1.60;;;11.50;95.30;;;;;;5081046;28;20034;-78
2021/03/23 10:26:17;;;;;;;3.33;1.40;;;11.60;94.30;;;;;;5080880;28;20030;-76
2021/03/23 10:28:53;;;;;;;5.60;1.27;;;11.70;93.90;;;;;;5080921;28;20040;-77
2021/03/23 10:31:37;;;;;;;6.47;1.88;;;11.50;93.50;;;;;;5012613;28;20036;-78
2021/03/23 10:34:04;;;;;;;2.65;1.55;;;11.60;93.70;;;;;;5080771;28;20030;-77
2021/03/23 10:37:08;;;;;;;4.53;1.83;;;11.60;94.00;;;;;;5012407;28;20034;-76
2021/03/23 10:39:42;;;;;;;3.70;1.77;;;11.90;93.40;;;;;;5033311;28;20021;-79
2021/03/23 10:42:29;;;;;;;3.72;1.40;;;11.80;92.60;;;;;;5015304;28;20468;-78
2021/03/23 10:45:27;;;;;;;4.47;1.10;;;11.80;92.70;;;;;;5012375;28;20084;-81
2021/03/23 10:48:02;;;;;;;11.43;2.25;;;11.70;92.30;;;;;;5012549;28;20079;-79
2021/03/23 10:50:31;;;;;;;3.63;1.83;;;11.70;93.00;;;;;;5012392;28;20030;-76
2021/03/23 10:53:11;;;;;;;4.47;1.42;;;11.70;92.30;;;;;;5080201;28;20487;-77
2021/03/23 10:55:45;;;;;;;2.05;1.40;;;11.60;91.60;;;;;;5012025;28;20065;-76
2021/03/23 10:58:27;;;;;;;4.45;1.65;;;11.60;92.10;;;;;;5012129;28;20046;-80
2021/03/23 11:01:14;;;;;;;4.10;1.73;;;11.80;93.10;;;;;;5080087;28;20061;-76
2021/03/23 11:03:43;;;;;;;2.88;1.35;;;11.80;91.90;;;;;;5080307;28;20029;-78
2021/03/23 11:06:32;;;;;;;6.60;2.15;;;11.90;92.50;;;;;;5011966;28;20050;-78
2021/03/23 11:08:58;;;;;;;4.40;1.65;;;11.80;90.40;;;;;;5080048;28;20399;-78
2021/03/23 11:11:25;;;;;;;6.13;1.58;;;11.90;91.10;;;;;;5011989;28;20030;-77
2021/03/23 11:13:51;;;;;;;6.20;2.00;;;11.90;90.30;;;;;;5018438;28;20034;-80
2021/03/23 11:16:20;;;;;;;3.33;1.48;;;11.90;90.30;;;;;;5010483;28;20460;-79
2021/03/23 11:18:47;;;;;;;3.10;1.58;;;11.90;90.20;;;;;;5011995;28;20034;-82
2021/03/23 11:21:16;;;;;;;2.60;1.50;;;11.80;90.80;;;;;;5011813;28;20034;-77
2021/03/23 11:23:48;;;;;;;4.50;2.03;;;11.80;88.80;;;;;;5011754;28;20036;-78
2021/03/23 11:26:24;;;;;;;3.40;1.83;;;12.10;89.90;;;;;;5011740;28;20032;-81
2021/03/23 11:28:53;;;;;;;4.43;1.33;;;11.90;90.00;;;;;;5011837;28;20053;-77
2021/03/23 11:31:21;;;;;;;3.60;2.17;;;11.80;91.40;;;;;;5079625;28;20201;-81
2021/03/23 11:33:47;;;;;;;3.78;1.75;;;11.90;91.10;;;;;;5011557;28;20087;-78
2021/03/23 11:36:14;;;;;;;3.08;1.30;;;12.10;92.00;;;;;;5011546;28;20034;-81
2021/03/23 11:38:40;;;;;;;3.47;1.48;;;11.70;91.20;;;;;;5079561;28;20083;-80
2021/03/23 11:41:12;;;;;;;4.85;1.75;;;11.60;91.10;;;;;;5011662;28;20044;-79
2021/03/23 11:43:50;;;;;;;3.40;1.52;;;11.90;91.90;;;;;;5079430;28;20124;-77
2021/03/23 11:46:27;;;;;;;5.50;1.85;;;11.80;90.30;;;;;;5011417;28;20113;-76
2021/03/23 11:49:04;;;;;;;4.57;1.55;;;11.70;90.80;;;;;;5011544;28;20030;-77
2021/03/23 11:51:30;;;;;;;6.25;1.98;;;11.70;90.70;;;;;;5011479;28;20029;-78
2021/03/23 11:53:56;;;;;;;5.07;1.50;;;12.10;91.00;;;;;;5011361;28;20041;-81
2021/03/23 11:56:22;;;;;;;10.15;2.00;;;12.10;89.10;;;;;;5011257;28;20416;-79
2021/03/23 11:58:48;;;;;;;3.60;0.82;;;12.10;88.00;;;;;;5079484;28;20033;-77
2021/03/23 12:01:14;;;;;;;2.05;1.42;;;11.80;89.80;;;;;;5011390;28;20033;-80
2021/03/23 12:03:41;;;;;;;4.13;1.70;;;11.90;90.20;;;;;;5011176;28;20499;-76
2021/03/23 12:06:08;;;;;;;4.50;2.00;;;11.50;90.40;;;;;;5079027;28;20238;-78
2021/03/23 12:08:44;;;;;;;3.28;1.55;;;11.60;87.50;;;;;;5011140;28;20025;-77
2021/03/23 12:11:26;;;;;;;3.72;1.50;;;11.80;86.00;;;;;;5011146;28;20033;-78
2021/03/23 12:14:13;;;;;;;5.32;1.20;;;12.00;85.80;;;;;;5011102;28;20030;-79
2021/03/23 12:17:00;;;;;;;2.45;1.50;;;11.80;85.00;;;;;;5010930;28;20034;-80
2021/03/23 12:19:34;;;;;;;4.15;1.58;;;11.70;86.90;;;;;;5010989;28;20052;-77
2021/03/23 12:22:00;;;;;;;2.83;1.10;;;11.90;85.30;;;;;;5011092;28;20117;-77
2021/03/23 12:24:26;;;;;;;4.30;1.33;;;11.90;85.40;;;;;;5010887;28;20026;-77
2021/03/23 12:26:53;;;;;;;5.07;1.60;;;12.00;85.20;;;;;;5010937;28;20487;-78
2021/03/23 12:29:20;;;;;;;1.55;0.80;;;12.20;86.30;;;;;;5014788;28;20065;-76
2021/03/23 12:31:47;;;;;;;3.10;1.10;;;12.20;84.90;;;;;;5012813;28;20483;-78
2021/03/23 12:34:13;;;;;;;3.40;1.20;;;12.10;84.00;;;;;;5010526;28;20034;-78
2021/03/23 12:36:41;;;;;;;2.35;1.35;;;12.00;82.10;;;;;;5010700;28;20018;-80
2021/03/23 12:39:09;;;;;;;1.77;1.60;;;12.00;84.30;;;;;;5010600;28;20495;-76
2021/03/23 12:41:36;;;;;;;3.58;1.25;;;11.80;84.40;;;;;;5010691;28;20034;-81
2021/03/23 12:44:04;;;;;;;7.82;2.03;;;11.90;84.30;;;;;;5010814;28;20145;-78
2021/03/23 12:46:31;;;;;;;3.40;1.17;;;12.00;84.40;;;;;;5010757;28;20026;-79
2021/03/23 12:48:58;;;;;;;4.78;1.70;;;12.30;84.50;;;;;;5078404;28;20065;-78
2021/03/23 12:51:51;;;;;;;2.97;1.27;;;12.40;86.00;;;;;;5010443;28;20082;-78
2021/03/23 12:54:23;;;;;;;4.28;1.52;;;12.10;85.90;;;;;;5010211;28;20109;-79
2021/03/23 12:56:50;;;;;;;6.22;1.55;;;12.10;87.10;;;;;;5010349;28;20422;-78
2021/03/23 12:59:21;;;;;;;7.80;2.20;;;12.20;86.80;;;;;;5010338;28;20026;-77
2021/03/23 13:01:47;;;;;;;4.43;1.52;;;12.30;88.50;;;;;;5010629;28;20037;-78
2021/03/23 13:04:13;;;;;;;4.68;1.60;;;12.10;85.30;;;;;;5010220;28;20041;-81
2021/03/23 13:06:40;;;;;;;2.60;1.50;;;11.70;84.20;;;;;;5010340;28;20030;-80
2021/03/23 13:09:06;;;;;;;4.75;1.23;;;11.80;84.10;;;;;;5010295;28;20038;-81
2021/03/23 13:11:33;;;;;;;3.17;1.42;;;12.00;85.20;;;;;;5009746;28;20030;-78
2021/03/23 13:14:02;;;;;;;3.17;1.50;;;11.90;84.40;;;;;;5060814;28;20069;-78
2021/03/23 13:16:31;;;;;;;3.63;1.98;;;12.30;85.20;;;;;;5009958;28;20129;-81
2021/03/23 13:18:58;;;;;;;2.85;1.35;;;12.30;81.80;;;;;;5077146;28;20407;-77
2021/03/23 13:21:38;;;;;;;13.25;1.83;;;12.30;82.50;;;;;;5010276;28;20495;-80
2021/03/23 13:24:19;;;;;;;2.60;1.52;;;12.20;82.00;;;;;;5010050;28;20026;-78
2021/03/23 13:26:45;;;;;;;3.67;1.77;;;12.30;83.20;;;;;;5009971;28;20025;-78